Forside
METAR-TAF:

METAR-TAF

Lufthavne :

Murray, Kentucky, USA

Breddekreds: 36-39-52N, længdekreds: 088-22-22W, højde: 176 m

Aktuelle vejr

Denne rapport blev lavet for 10 minutter siden, kl. 13:15 UTC
Vind 10 kt fra sydøst med vindstød på up til 17 kt
Temperatur 0°C
Fugtighed 55%
Tryk 1025 hPa
Sigt: 16.1 km
Nogle få skyer i en højde af 4900 ft

METAR: KCEY 221315Z AUTO 14010G17KT 10SM FEW049 00/M08 A3027 RMK AO1

Tid: 07:25 (13:25 UTC)


TAF: fraværende

Vejrobservationer og prognoser fra mere end 4000 lufthavne (METAR og TAF).

De gule og røde prikker repræsenterer de meteorologiske stationer.

Flyt musen over at se navnet på stationen.

Så klik over at se vejr observationer og prognoser.

At skifte det kort: Klik på de grønne knapper med et sort kors for at zoome ind; på den grønne knap med en bindestreg for at zoome ud; eller på de grønne pile for tilstødende kort.


METAR-TAF: